createdAt,value
2022-09-15T00:01:17.194Z,64.08
2022-09-15T00:03:45.645Z,64.10
2022-09-15T00:06:14.649Z,64.18
2022-09-15T00:08:42.727Z,64.16
2022-09-15T00:11:20.591Z,64.10
2022-09-15T00:13:49.463Z,64.15
2022-09-15T00:16:18.933Z,64.06
2022-09-15T00:18:47.460Z,63.72
2022-09-15T00:21:18.790Z,63.89
2022-09-15T00:23:48.146Z,63.79
2022-09-15T00:26:19.876Z,63.76
2022-09-15T00:28:48.553Z,63.73
2022-09-15T00:31:18.783Z,63.61
2022-09-15T00:33:48.528Z,63.37
2022-09-15T00:36:17.561Z,63.43
2022-09-15T00:38:45.352Z,63.27
2022-09-15T00:41:16.034Z,63.26
2022-09-15T00:43:46.745Z,63.26
2022-09-15T00:46:16.677Z,63.38
2022-09-15T00:48:52.676Z,63.35
2022-09-15T00:51:24.440Z,63.36
2022-09-15T00:53:53.468Z,63.33
2022-09-15T00:56:22.901Z,63.30
2022-09-15T00:58:56.952Z,63.51
2022-09-15T01:01:27.684Z,63.58
2022-09-15T01:03:56.464Z,63.50
2022-09-15T01:06:34.056Z,63.73
2022-09-15T01:09:26.168Z,63.70
2022-09-15T01:11:54.256Z,63.85
2022-09-15T01:14:22.157Z,63.80
2022-09-15T01:17:03.925Z,63.84
2022-09-15T01:19:51.473Z,63.97
2022-09-15T01:22:53.524Z,64.08
2022-09-15T01:25:52.601Z,64.18
2022-09-15T01:29:03.824Z,63.97
2022-09-15T01:32:18.796Z,64.11
2022-09-15T01:35:00.745Z,64.02
2022-09-15T01:37:34.435Z,63.95
2022-09-15T01:40:04.985Z,63.93
2022-09-15T01:42:34.872Z,63.95
2022-09-15T01:45:12.036Z,63.87
2022-09-15T01:47:40.877Z,63.91
2022-09-15T01:50:33.205Z,64.04
2022-09-15T01:53:04.122Z,63.84
2022-09-15T01:55:54.023Z,63.57
2022-09-15T01:58:22.701Z,63.59
2022-09-15T02:01:08.790Z,63.48
2022-09-15T02:03:50.333Z,63.47
2022-09-15T02:06:45.528Z,63.28
2022-09-15T02:09:21.531Z,63.18
2022-09-15T02:12:19.979Z,63.21
2022-09-15T02:14:56.987Z,62.92
2022-09-15T02:17:29.216Z,62.97
2022-09-15T02:20:09.092Z,63.04
2022-09-15T02:22:40.863Z,62.89
2022-09-15T02:25:13.275Z,63.26
2022-09-15T02:27:46.083Z,63.23
2022-09-15T02:30:17.829Z,63.50
2022-09-15T02:32:56.768Z,63.16
2022-09-15T02:35:28.704Z,63.40
2022-09-15T02:37:58.563Z,63.42
2022-09-15T02:40:28.898Z,63.64
2022-09-15T02:42:58.840Z,63.68
2022-09-15T02:45:27.195Z,63.67
2022-09-15T02:47:54.718Z,63.68
2022-09-15T02:50:22.415Z,63.86
2022-09-15T02:52:50.296Z,64.18
2022-09-15T02:55:18.267Z,64.84
2022-09-15T02:57:46.127Z,65.99
2022-09-15T03:00:19.062Z,68.15
2022-09-15T03:02:52.647Z,70.49
2022-09-15T03:05:25.076Z,73.08
2022-09-15T03:07:53.381Z,73.81
2022-09-15T03:10:24.005Z,74.95
2022-09-15T03:12:53.993Z,76.34
2022-09-15T03:15:24.458Z,75.66
2022-09-15T03:17:53.539Z,78.13
2022-09-15T03:20:24.226Z,78.45
2022-09-15T03:22:52.351Z,79.04
2022-09-15T03:25:20.888Z,78.49
2022-09-15T03:27:48.640Z,78.70
2022-09-15T03:30:16.751Z,79.01
2022-09-15T03:32:44.571Z,80.68
2022-09-15T03:35:12.797Z,83.51
2022-09-15T03:37:40.853Z,82.57
2022-09-15T03:40:10.718Z,83.39
2022-09-15T03:42:38.543Z,81.72
2022-09-15T03:45:07.522Z,83.25
2022-09-15T03:47:35.365Z,84.30
2022-09-15T03:50:03.307Z,87.46
2022-09-15T03:52:31.983Z,85.94
2022-09-15T03:54:59.830Z,86.07
2022-09-15T03:57:27.543Z,86.16
2022-09-15T03:59:55.677Z,89.96
2022-09-15T04:02:23.416Z,89.80
2022-09-15T04:04:51.653Z,84.37
2022-09-15T04:07:19.755Z,83.56
2022-09-15T04:09:47.463Z,85.10
2022-09-15T04:12:15.449Z,86.58
2022-09-15T04:14:43.473Z,84.48
2022-09-15T04:17:11.654Z,82.86
2022-09-15T04:19:40.663Z,84.37
2022-09-15T04:22:08.508Z,85.40
2022-09-15T04:24:36.522Z,86.39
2022-09-15T04:27:04.707Z,88.79
2022-09-15T04:29:32.768Z,89.78
2022-09-15T04:32:00.774Z,90.67
2022-09-15T04:34:29.005Z,91.76
2022-09-15T04:36:57.005Z,92.78
2022-09-15T04:39:25.569Z,93.26
2022-09-15T04:41:54.696Z,93.62
2022-09-15T04:44:22.456Z,93.77
2022-09-15T04:46:50.384Z,94.17
2022-09-15T04:49:18.877Z,93.94
2022-09-15T04:51:47.087Z,94.83
2022-09-15T04:54:14.798Z,95.02
2022-09-15T04:56:42.711Z,94.98
2022-09-15T04:59:16.115Z,95.79
2022-09-15T05:01:44.710Z,95.80
2022-09-15T05:04:12.639Z,95.91
2022-09-15T05:06:40.387Z,95.95
2022-09-15T05:09:10.412Z,96.01
2022-09-15T05:11:38.787Z,95.63
2022-09-15T05:14:07.044Z,95.55
2022-09-15T05:16:35.391Z,95.72
2022-09-15T05:19:04.554Z,95.54
2022-09-15T05:21:32.600Z,95.42
2022-09-15T05:24:00.998Z,95.31
2022-09-15T05:26:30.152Z,95.01
2022-09-15T05:28:58.000Z,95.17
2022-09-15T05:31:29.194Z,95.01
2022-09-15T05:33:57.328Z,94.89
2022-09-15T05:36:25.429Z,93.99
2022-09-15T05:38:56.510Z,93.86
2022-09-15T05:41:25.255Z,93.79
2022-09-15T05:43:55.145Z,93.41
2022-09-15T05:46:26.080Z,92.42
2022-09-15T05:48:57.155Z,92.68
2022-09-15T05:51:25.577Z,91.58
2022-09-15T05:53:53.307Z,90.22
2022-09-15T05:56:22.483Z,89.35
2022-09-15T05:58:50.327Z,87.23
2022-09-15T06:01:21.531Z,87.54
2022-09-15T06:03:50.592Z,86.24
2022-09-15T06:06:19.260Z,84.76
2022-09-15T06:08:52.861Z,85.21
2022-09-15T06:11:26.414Z,82.92
2022-09-15T06:13:54.413Z,82.37
2022-09-15T06:16:24.066Z,80.94
2022-09-15T06:18:53.645Z,80.33
2022-09-15T06:21:23.599Z,79.50
2022-09-15T06:23:56.283Z,78.91
2022-09-15T06:26:25.679Z,77.86
2022-09-15T06:28:55.972Z,76.89
2022-09-15T06:31:26.092Z,76.82
2022-09-15T06:33:56.022Z,76.45
2022-09-15T06:36:26.820Z,76.67
2022-09-15T06:38:55.465Z,76.55
2022-09-15T06:41:23.680Z,76.51
2022-09-15T06:43:52.329Z,76.73
2022-09-15T06:46:23.279Z,77.08
2022-09-15T06:48:53.412Z,76.26
2022-09-15T06:51:23.415Z,76.75
2022-09-15T06:53:53.444Z,77.13
2022-09-15T06:56:22.753Z,76.82
2022-09-15T06:58:50.986Z,77.62
2022-09-15T07:01:28.161Z,77.06
2022-09-15T07:03:57.400Z,76.80
2022-09-15T07:06:29.320Z,76.63
2022-09-15T07:08:58.536Z,77.21
2022-09-15T07:11:26.620Z,76.87
2022-09-15T07:13:54.518Z,76.46
2022-09-15T07:16:22.749Z,75.46
2022-09-15T07:18:50.784Z,74.97
2022-09-15T07:21:20.334Z,75.34
2022-09-15T07:23:49.828Z,75.32
2022-09-15T07:26:23.854Z,74.48
2022-09-15T07:28:59.158Z,74.99
2022-09-15T07:31:31.168Z,74.37
2022-09-15T07:34:05.636Z,74.73
2022-09-15T07:36:49.419Z,75.30
2022-09-15T07:39:17.831Z,74.87
2022-09-15T07:41:46.064Z,74.87
2022-09-15T07:44:14.224Z,75.70
2022-09-15T07:46:41.897Z,74.95
2022-09-15T07:49:10.507Z,72.89
2022-09-15T07:51:38.279Z,73.82
2022-09-15T07:54:07.051Z,71.98
2022-09-15T07:56:34.948Z,72.25
2022-09-15T07:59:02.850Z,72.40
2022-09-15T08:01:30.701Z,71.47
2022-09-15T08:03:59.070Z,70.65
2022-09-15T08:06:26.967Z,70.23
2022-09-15T08:08:59.951Z,70.69
2022-09-15T08:11:29.537Z,70.87
2022-09-15T08:14:01.363Z,70.63
2022-09-15T08:16:29.630Z,69.33
2022-09-15T08:18:57.281Z,69.24
2022-09-15T08:21:25.821Z,68.14
2022-09-15T08:23:56.739Z,69.21
2022-09-15T08:26:26.544Z,69.16
2022-09-15T08:28:54.923Z,68.12
2022-09-15T08:31:24.304Z,68.87
2022-09-15T08:33:55.038Z,68.52
2022-09-15T08:36:24.557Z,67.77
2022-09-15T08:38:52.371Z,65.89
2022-09-15T08:41:39.898Z,66.98
2022-09-15T08:44:19.404Z,66.79
2022-09-15T08:46:46.985Z,66.69
2022-09-15T08:49:47.398Z,66.70
2022-09-15T08:52:38.622Z,65.78
2022-09-15T08:55:18.101Z,65.22
2022-09-15T08:57:46.185Z,65.63
2022-09-15T09:00:16.688Z,64.82
2022-09-15T09:02:58.981Z,64.55
2022-09-15T09:06:03.631Z,64.61
2022-09-15T09:09:04.030Z,64.88
2022-09-15T09:11:54.259Z,65.17
2022-09-15T09:14:54.405Z,64.51
2022-09-15T09:17:51.296Z,64.20
2022-09-15T09:20:40.436Z,62.13
2022-09-15T09:23:13.753Z,62.93
2022-09-15T09:25:43.799Z,64.53
2022-09-15T09:28:32.139Z,63.95
2022-09-15T09:31:15.603Z,64.15
2022-09-15T09:33:53.459Z,62.95
2022-09-15T09:36:21.514Z,63.04
2022-09-15T09:38:50.708Z,62.17
2022-09-15T09:41:26.894Z,61.42
2022-09-15T09:43:56.360Z,59.97
2022-09-15T09:46:24.276Z,61.32
2022-09-15T09:48:58.286Z,60.46
2022-09-15T09:51:36.104Z,59.86
2022-09-15T09:54:16.197Z,60.17
2022-09-15T09:56:44.844Z,60.28
2022-09-15T09:59:31.448Z,60.59
2022-09-15T10:02:15.744Z,60.97
2022-09-15T10:04:55.839Z,60.04
2022-09-15T10:07:26.279Z,60.60
2022-09-15T10:10:00.092Z,59.73
2022-09-15T10:12:34.114Z,60.29
2022-09-15T10:15:06.088Z,60.38
2022-09-15T10:17:37.133Z,59.95
2022-09-15T10:20:20.067Z,59.07
2022-09-15T10:22:48.035Z,59.77
2022-09-15T10:25:22.135Z,59.55
2022-09-15T10:28:08.379Z,59.07
2022-09-15T10:30:37.660Z,58.96
2022-09-15T10:33:26.776Z,58.13
2022-09-15T10:36:03.839Z,56.81
2022-09-15T10:38:48.962Z,57.27
2022-09-15T10:41:28.848Z,56.14
2022-09-15T10:44:26.250Z,57.60
2022-09-15T10:47:00.940Z,55.30
2022-09-15T10:49:48.408Z,55.22
2022-09-15T10:52:25.306Z,54.81
2022-09-15T10:55:24.676Z,55.99
2022-09-15T10:58:12.400Z,55.03
2022-09-15T11:01:00.397Z,54.68
2022-09-15T11:03:50.475Z,54.60
2022-09-15T11:06:27.856Z,53.16
2022-09-15T11:09:09.311Z,54.57
2022-09-15T11:11:49.700Z,54.25
2022-09-15T11:14:37.466Z,53.01
2022-09-15T11:17:29.831Z,53.51
2022-09-15T11:20:15.748Z,55.68
2022-09-15T11:23:11.604Z,53.30
2022-09-15T11:25:44.500Z,53.91
2022-09-15T11:28:36.052Z,52.98
2022-09-15T11:31:16.991Z,51.29
2022-09-15T11:34:09.861Z,51.37
2022-09-15T11:36:44.370Z,51.41
2022-09-15T11:39:22.468Z,49.47
2022-09-15T11:42:04.755Z,50.15
2022-09-15T11:44:37.172Z,50.57
2022-09-15T11:47:09.269Z,47.64
2022-09-15T11:49:45.521Z,46.64
2022-09-15T11:52:35.211Z,48.78
2022-09-15T11:55:39.348Z,49.91
2022-09-15T11:58:29.385Z,49.67
2022-09-15T12:01:07.808Z,48.05
2022-09-15T12:03:45.878Z,49.05
2022-09-15T12:06:24.718Z,47.93
2022-09-15T12:08:58.423Z,47.53
2022-09-15T12:11:28.879Z,48.67
2022-09-15T12:13:58.302Z,49.02
2022-09-15T12:16:27.637Z,49.23
2022-09-15T12:19:26.562Z,48.58
2022-09-15T12:22:01.907Z,49.14
2022-09-15T12:24:45.829Z,49.53
2022-09-15T12:27:16.895Z,49.79
2022-09-15T12:29:53.413Z,49.99
2022-09-15T12:32:34.849Z,50.20
2022-09-15T12:35:04.613Z,51.11
2022-09-15T12:37:42.215Z,50.56
2022-09-15T12:40:33.112Z,50.19
2022-09-15T12:43:03.379Z,50.67
2022-09-15T12:45:36.190Z,50.86
2022-09-15T12:48:23.345Z,50.57
2022-09-15T12:50:58.873Z,50.81
2022-09-15T12:53:51.650Z,51.79
2022-09-15T12:56:28.480Z,50.82
2022-09-15T12:59:06.586Z,50.23
2022-09-15T13:01:48.528Z,48.97
2022-09-15T13:04:42.102Z,48.69
2022-09-15T13:07:15.708Z,48.36
2022-09-15T13:09:57.080Z,48.07
2022-09-15T13:12:35.919Z,47.50
2022-09-15T13:15:13.192Z,47.71
2022-09-15T13:17:46.664Z,47.73
2022-09-15T13:20:23.169Z,48.25
2022-09-15T13:22:56.367Z,48.35
2022-09-15T13:25:30.249Z,48.52
2022-09-15T13:28:02.872Z,48.00
2022-09-15T13:31:03.418Z,47.14
2022-09-15T13:39:59.578Z,47.88
2022-09-15T13:42:54.245Z,47.89
2022-09-15T13:45:48.437Z,47.58
2022-09-15T13:48:38.057Z,46.57
2022-09-15T13:51:15.545Z,46.75
2022-09-15T13:53:56.497Z,48.14
2022-09-15T13:56:35.590Z,48.89
2022-09-15T13:59:14.177Z,49.22
2022-09-15T14:01:43.053Z,49.65
2022-09-15T14:04:17.242Z,50.19
2022-09-15T14:06:48.805Z,50.36
2022-09-15T14:09:27.739Z,50.62
2022-09-15T14:12:05.175Z,51.22
2022-09-15T14:14:44.898Z,51.88
2022-09-15T14:17:29.822Z,51.78
2022-09-15T14:20:00.834Z,51.94
2022-09-15T14:22:30.412Z,52.59
2022-09-15T14:25:00.502Z,53.16
2022-09-15T14:27:34.539Z,55.40
2022-09-15T14:30:07.978Z,57.40
2022-09-15T14:32:39.968Z,59.96
2022-09-15T14:35:16.086Z,61.89
2022-09-15T14:37:58.243Z,68.28
2022-09-15T14:40:35.911Z,73.24
2022-09-15T14:43:23.221Z,74.98
2022-09-15T14:45:55.701Z,75.52
2022-09-15T14:48:28.133Z,76.95
2022-09-15T14:51:13.309Z,78.33
2022-09-15T14:53:43.417Z,77.89
2022-09-15T14:56:19.158Z,77.98
2022-09-15T14:58:50.936Z,78.82
2022-09-15T15:01:30.303Z,77.98
2022-09-15T15:04:10.385Z,78.30
2022-09-15T15:06:50.804Z,78.31
2022-09-15T15:09:47.113Z,79.06
2022-09-15T15:12:30.460Z,79.60
2022-09-15T15:15:00.808Z,80.32
2022-09-15T15:17:42.928Z,78.56
2022-09-15T15:20:10.871Z,79.59
2022-09-15T15:22:41.703Z,79.57
2022-09-15T15:25:32.644Z,79.16
2022-09-15T15:28:04.776Z,79.89
2022-09-15T15:30:45.827Z,80.17
2022-09-15T15:33:25.159Z,80.51
2022-09-15T15:36:11.844Z,79.66
2022-09-15T15:38:53.519Z,80.59
2022-09-15T15:41:24.201Z,80.15
2022-09-15T15:44:10.257Z,80.11
2022-09-15T15:47:20.222Z,80.06
2022-09-15T15:50:11.696Z,80.71
2022-09-15T15:52:35.748Z,80.40
2022-09-15T15:55:04.684Z,80.72
2022-09-15T15:57:38.103Z,81.63
2022-09-15T16:00:24.957Z,82.50
2022-09-15T16:02:53.207Z,82.60
2022-09-15T16:05:25.203Z,82.64
2022-09-15T16:07:56.070Z,82.68
2022-09-15T16:10:30.535Z,82.93
2022-09-15T16:12:58.230Z,83.28
2022-09-15T16:15:26.902Z,83.05
2022-09-15T16:17:54.508Z,83.03
2022-09-15T16:20:26.569Z,83.16
2022-09-15T16:22:54.721Z,83.43
2022-09-15T16:25:36.793Z,83.12
2022-09-15T16:28:04.865Z,83.04
2022-09-15T16:30:34.036Z,82.90
2022-09-15T16:33:02.039Z,83.20
2022-09-15T16:35:43.560Z,83.50
2022-09-15T16:38:11.876Z,83.64
2022-09-15T16:40:40.080Z,83.63
2022-09-15T16:43:14.933Z,83.67
2022-09-15T16:45:43.955Z,83.33
2022-09-15T16:48:11.989Z,83.11
2022-09-15T16:50:50.120Z,83.02
2022-09-15T16:53:21.455Z,82.97
2022-09-15T16:55:53.056Z,82.93
2022-09-15T16:58:22.391Z,83.08
2022-09-15T17:00:52.495Z,83.05
2022-09-15T17:03:22.147Z,83.08
2022-09-15T17:05:52.255Z,83.20
2022-09-15T17:08:27.143Z,83.68
2022-09-15T17:10:57.451Z,83.83
2022-09-15T17:13:29.511Z,83.73
2022-09-15T17:15:59.578Z,83.81
2022-09-15T17:18:28.454Z,84.50
2022-09-15T17:20:56.298Z,83.09
2022-09-15T17:23:27.718Z,83.68
2022-09-15T17:25:58.985Z,84.63
2022-09-15T17:28:28.893Z,84.61
2022-09-15T17:30:59.670Z,84.56
2022-09-15T17:33:28.825Z,85.81
2022-09-15T17:35:58.366Z,86.41
2022-09-15T17:38:26.565Z,86.92
2022-09-15T17:40:58.716Z,86.97
2022-09-15T17:43:29.800Z,87.59
2022-09-15T17:45:58.366Z,88.17
2022-09-15T17:48:26.510Z,88.60
2022-09-15T17:50:54.000Z,88.79
2022-09-15T17:53:26.554Z,89.35
2022-09-15T17:55:55.404Z,89.61
2022-09-15T17:58:29.875Z,89.43
2022-09-15T18:00:58.271Z,89.77
2022-09-15T18:03:30.407Z,89.71
2022-09-15T18:05:59.953Z,89.42
2022-09-15T18:08:27.877Z,89.47
2022-09-15T18:10:55.702Z,89.62
2022-09-15T18:13:26.862Z,89.16
2022-09-15T18:15:54.970Z,89.17
2022-09-15T18:18:25.496Z,89.43
2022-09-15T18:20:55.680Z,88.70
2022-09-15T18:23:25.621Z,88.52
2022-09-15T18:25:53.025Z,88.17
2022-09-15T18:28:20.908Z,88.53
2022-09-15T18:30:49.828Z,88.36
2022-09-15T18:33:23.579Z,87.77
2022-09-15T18:35:54.192Z,87.79
2022-09-15T18:38:23.403Z,87.09
2022-09-15T18:40:55.409Z,87.31
2022-09-15T18:43:26.296Z,86.58
2022-09-15T18:46:01.501Z,86.80
2022-09-15T18:48:29.640Z,86.39
2022-09-15T18:50:58.701Z,86.75
2022-09-15T18:53:26.639Z,86.16
2022-09-15T18:55:54.068Z,86.90
2022-09-15T18:58:22.671Z,86.65
2022-09-15T19:00:50.223Z,86.70
2022-09-15T19:03:17.615Z,86.94
2022-09-15T19:05:45.955Z,86.45
2022-09-15T19:08:13.483Z,87.72
2022-09-15T19:10:43.804Z,87.23
2022-09-15T19:13:13.865Z,87.75
2022-09-15T19:15:41.714Z,87.72
2022-09-15T19:18:09.113Z,87.83
2022-09-15T19:20:37.485Z,87.94
2022-09-15T19:23:05.365Z,87.92
2022-09-15T19:25:33.545Z,88.71
2022-09-15T19:28:02.105Z,88.49
2022-09-15T19:30:30.115Z,88.47
2022-09-15T19:32:58.136Z,88.88
2022-09-15T19:35:26.857Z,88.63
2022-09-15T19:37:54.303Z,88.43
2022-09-15T19:40:23.773Z,88.38
2022-09-15T19:42:51.671Z,88.86
2022-09-15T19:45:19.087Z,88.62
2022-09-15T19:47:46.551Z,88.75
2022-09-15T19:50:15.097Z,89.01
2022-09-15T19:52:42.716Z,89.45
2022-09-15T19:55:10.477Z,89.76
2022-09-15T19:57:40.405Z,89.88
2022-09-15T20:00:10.688Z,90.23
2022-09-15T20:02:39.431Z,90.65
2022-09-15T20:05:07.910Z,90.73
2022-09-15T20:07:36.403Z,91.09
2022-09-15T20:10:06.299Z,91.80
2022-09-15T20:12:33.768Z,91.71
2022-09-15T20:15:02.436Z,91.88
2022-09-15T20:17:30.698Z,91.97
2022-09-15T20:19:58.884Z,91.98
2022-09-15T20:22:26.813Z,92.06
2022-09-15T20:24:56.335Z,92.71
2022-09-15T20:27:24.228Z,93.00
2022-09-15T20:29:52.232Z,92.72
2022-09-15T20:32:22.804Z,92.77
2022-09-15T20:34:52.648Z,93.15
2022-09-15T20:37:22.254Z,93.03
2022-09-15T20:39:51.227Z,93.11
2022-09-15T20:42:18.906Z,92.66
2022-09-15T20:44:46.541Z,93.02
2022-09-15T20:47:13.956Z,92.55
2022-09-15T20:49:41.463Z,92.25
2022-09-15T20:52:09.410Z,92.22
2022-09-15T20:54:37.306Z,92.29
2022-09-15T20:57:05.236Z,92.52
2022-09-15T20:59:34.960Z,93.01
2022-09-15T21:02:05.088Z,93.55
2022-09-15T21:04:33.259Z,94.15
2022-09-15T21:07:00.881Z,94.26
2022-09-15T21:09:28.789Z,94.93
2022-09-15T21:11:56.505Z,95.56
2022-09-15T21:14:24.437Z,96.16
2022-09-15T21:16:51.827Z,96.06
2022-09-15T21:19:19.624Z,97.02
2022-09-15T21:21:46.956Z,97.35
2022-09-15T21:24:14.297Z,97.86
2022-09-15T21:27:00.909Z,98.76
2022-09-15T21:29:29.452Z,98.75
2022-09-15T21:31:57.750Z,98.73
2022-09-15T21:34:26.274Z,99.60
2022-09-15T21:36:53.870Z,99.74
2022-09-15T21:39:21.560Z,100.00
2022-09-15T21:41:49.743Z,99.71
2022-09-15T21:44:17.147Z,99.95
2022-09-15T21:46:47.162Z,100.00
2022-09-15T21:49:14.772Z,99.67
2022-09-15T21:51:43.202Z,100.00
2022-09-15T21:54:11.364Z,100.00
2022-09-15T21:56:39.899Z,100.00
2022-09-15T21:59:10.576Z,100.00
2022-09-15T22:01:40.178Z,100.00
2022-09-15T22:04:09.896Z,100.00
2022-09-15T22:06:40.583Z,100.00
2022-09-15T22:09:14.886Z,99.96
2022-09-15T22:11:42.793Z,99.63
2022-09-15T22:14:11.591Z,99.44
2022-09-15T22:16:41.650Z,99.59
2022-09-15T22:19:11.514Z,99.49
2022-09-15T22:21:41.778Z,99.44
2022-09-15T22:24:12.737Z,99.45
2022-09-15T22:26:42.466Z,99.99
2022-09-15T22:29:10.869Z,100.00
2022-09-15T22:31:38.238Z,100.00
2022-09-15T22:34:05.985Z,100.00
2022-09-15T22:36:33.692Z,100.00
2022-09-15T22:39:06.070Z,100.00
2022-09-15T22:41:37.080Z,100.00
2022-09-15T22:44:06.627Z,100.00
2022-09-15T22:46:34.896Z,100.00
2022-09-15T22:49:02.896Z,100.00
2022-09-15T22:51:30.825Z,99.87
2022-09-15T22:53:59.310Z,100.00
2022-09-15T22:56:26.967Z,100.00
2022-09-15T22:58:56.655Z,100.00
2022-09-15T23:01:27.914Z,100.00
2022-09-15T23:03:58.632Z,100.00
2022-09-15T23:06:29.014Z,100.00
2022-09-15T23:08:59.507Z,100.00
2022-09-15T23:11:28.833Z,100.00
2022-09-15T23:13:56.523Z,100.00
2022-09-15T23:16:25.060Z,100.00
2022-09-15T23:18:53.757Z,100.00
2022-09-15T23:21:22.540Z,100.00
2022-09-15T23:23:52.755Z,100.00
2022-09-15T23:26:22.022Z,100.00
2022-09-15T23:28:50.481Z,100.00
2022-09-15T23:31:19.402Z,100.00
2022-09-15T23:33:48.321Z,100.00
2022-09-15T23:36:19.560Z,100.00
2022-09-15T23:38:49.317Z,100.00
2022-09-15T23:41:17.679Z,100.00
2022-09-15T23:43:46.413Z,100.00
2022-09-15T23:46:15.043Z,99.88
2022-09-15T23:48:42.911Z,100.00
2022-09-15T23:51:10.599Z,100.00
2022-09-15T23:53:38.480Z,100.00
2022-09-15T23:56:06.192Z,100.00
2022-09-15T23:58:33.927Z,100.00
